createdAt,value
2018-09-21T05:31:58.453Z,8.97
2018-09-21T05:34:26.675Z,9.83
2018-09-21T05:36:54.801Z,9.33
2018-09-21T05:39:22.971Z,10.37
2018-09-21T05:41:51.113Z,9.37
2018-09-21T05:44:19.294Z,9.30
2018-09-21T05:46:47.460Z,9.10
2018-09-21T05:49:15.613Z,10.50
2018-09-21T05:51:43.811Z,9.30
2018-09-21T05:54:11.971Z,9.47
2018-09-21T05:56:40.898Z,9.23
2018-09-21T05:59:09.059Z,9.50
2018-09-21T06:01:37.237Z,8.43
2018-09-21T06:04:05.427Z,9.57
2018-09-21T06:06:33.641Z,8.40
2018-09-21T06:11:29.276Z,9.43
2018-09-21T06:13:57.551Z,9.70
2018-09-21T06:16:25.642Z,9.27
2018-09-21T06:18:53.807Z,10.60
2018-09-21T06:21:21.993Z,11.23
2018-09-21T06:23:50.192Z,10.80
2018-09-21T06:26:18.378Z,9.63
2018-09-21T06:28:46.563Z,10.47
2018-09-21T06:31:14.725Z,9.73
2018-09-21T06:33:42.898Z,9.17
2018-09-21T06:36:11.382Z,10.23
2018-09-21T06:38:39.574Z,10.13
2018-09-21T06:41:07.872Z,9.93
2018-09-21T06:43:35.998Z,9.60
2018-09-21T06:46:04.193Z,8.70
2018-09-21T06:48:32.423Z,9.40
2018-09-21T06:51:01.495Z,9.30
2018-09-21T06:53:29.690Z,8.13
2018-09-21T06:55:57.902Z,8.87
2018-09-21T06:58:26.107Z,8.33
2018-09-21T07:00:54.256Z,7.73
2018-09-21T07:03:22.435Z,8.07
2018-09-21T07:05:53.404Z,8.10
2018-09-21T07:08:22.478Z,7.77
2018-09-21T07:10:50.616Z,7.30
2018-09-21T07:13:18.786Z,7.93
2018-09-21T07:15:46.972Z,7.30
2018-09-21T07:18:15.166Z,6.90
2018-09-21T07:20:43.363Z,6.90
2018-09-21T07:23:11.542Z,7.10
2018-09-21T07:25:39.718Z,7.37
2018-09-21T07:28:07.898Z,6.87
2018-09-21T07:30:36.079Z,6.70
2018-09-21T07:33:04.254Z,7.30
2018-09-21T07:35:32.417Z,7.17
2018-09-21T07:38:00.578Z,7.37
2018-09-21T07:40:28.755Z,7.60
2018-09-21T07:42:56.986Z,7.70
2018-09-21T07:45:25.571Z,7.90
2018-09-21T07:47:53.722Z,7.07
2018-09-21T07:50:21.892Z,7.60
2018-09-21T07:52:50.049Z,7.33
2018-09-21T07:55:18.223Z,7.90
2018-09-21T07:57:46.389Z,7.60
2018-09-21T08:00:14.565Z,7.03
2018-09-21T08:02:42.797Z,6.83
2018-09-21T08:05:11.009Z,6.80
2018-09-21T08:07:39.163Z,7.43
2018-09-21T08:10:07.347Z,7.13
2018-09-21T08:12:35.576Z,7.10
2018-09-21T08:15:03.735Z,6.67
2018-09-21T08:17:31.905Z,6.87
2018-09-21T08:20:00.083Z,6.67
2018-09-21T08:22:28.250Z,6.60
2018-09-21T08:24:56.473Z,6.30
2018-09-21T08:27:24.597Z,6.43
2018-09-21T08:29:52.764Z,6.33
2018-09-21T08:32:20.961Z,6.00
2018-09-21T08:34:49.190Z,6.80
2018-09-21T08:37:17.453Z,6.60
2018-09-21T08:39:45.524Z,6.00
2018-09-21T08:42:13.702Z,5.87
2018-09-21T08:44:41.987Z,6.70
2018-09-21T08:47:10.199Z,6.17
2018-09-21T08:49:38.416Z,6.30
2018-09-21T08:52:06.807Z,6.73
2018-09-21T08:54:35.042Z,6.90
2018-09-21T08:57:03.174Z,6.50
2018-09-21T08:59:31.355Z,6.73
2018-09-21T09:01:59.550Z,6.40
2018-09-21T09:04:27.711Z,7.07
2018-09-21T09:06:55.923Z,6.77
2018-09-21T09:09:24.162Z,7.30
2018-09-21T09:11:52.420Z,6.43
2018-09-21T09:14:20.639Z,6.63
2018-09-21T09:16:48.850Z,7.03
2018-09-21T09:19:17.085Z,6.80
2018-09-21T09:21:45.286Z,6.67
2018-09-21T09:24:13.459Z,6.60
2018-09-21T09:26:41.594Z,6.70
2018-09-21T09:29:10.171Z,6.53
2018-09-21T09:31:38.632Z,6.40
2018-09-21T09:34:06.858Z,6.60
2018-09-21T09:36:35.030Z,6.30
2018-09-21T09:39:05.384Z,6.23
2018-09-21T09:41:33.607Z,6.60
2018-09-21T09:44:01.782Z,6.37
2018-09-21T09:46:29.958Z,6.10
2018-09-21T09:48:58.325Z,5.63
2018-09-21T09:51:26.415Z,5.57
2018-09-21T09:53:54.607Z,6.33
2018-09-21T09:56:22.764Z,6.23
2018-09-21T09:58:50.933Z,6.00
2018-09-21T10:01:19.128Z,5.30
2018-09-21T10:03:47.374Z,5.97
2018-09-21T10:06:15.530Z,5.50
2018-09-21T10:08:44.928Z,5.50
2018-09-21T10:11:13.083Z,5.70
2018-09-21T10:13:41.275Z,5.00
2018-09-21T10:16:09.434Z,5.37
2018-09-21T10:18:37.615Z,5.57
2018-09-21T10:21:05.782Z,5.10
2018-09-21T10:23:33.930Z,4.43
2018-09-21T10:26:02.106Z,4.87
2018-09-21T10:28:30.520Z,5.03
2018-09-21T10:30:58.452Z,4.67
2018-09-21T10:33:26.642Z,4.63
2018-09-21T10:35:54.804Z,4.30
2018-09-21T10:38:22.978Z,3.83
2018-09-21T10:41:05.979Z,3.47
2018-09-21T10:43:34.162Z,3.30
2018-09-21T10:46:02.359Z,3.80
2018-09-21T10:48:30.538Z,3.40
2018-09-21T10:50:58.714Z,3.33
2018-09-21T10:53:26.974Z,2.63
2018-09-21T10:55:55.127Z,3.10
2018-09-21T10:58:23.278Z,3.20
2018-09-21T11:00:51.451Z,3.57
2018-09-21T11:03:19.626Z,2.30
2018-09-21T11:05:47.819Z,2.70
2018-09-21T11:08:15.990Z,2.80
2018-09-21T11:10:44.160Z,2.47
2018-09-21T11:13:12.337Z,2.50
2018-09-21T11:15:40.486Z,2.30
2018-09-21T11:18:08.874Z,2.50
2018-09-21T11:20:37.090Z,2.00
2018-09-21T11:23:06.125Z,2.07
2018-09-21T11:25:34.274Z,2.00
2018-09-21T11:28:02.444Z,2.37
2018-09-21T11:30:30.594Z,2.10
2018-09-21T11:33:02.035Z,1.93
2018-09-21T11:35:30.945Z,2.20
2018-09-21T11:37:59.935Z,2.03
2018-09-21T11:40:28.140Z,2.07
2018-09-21T11:42:56.314Z,2.20
2018-09-21T11:45:24.510Z,1.80
2018-09-21T11:47:52.711Z,2.20
2018-09-21T11:50:20.884Z,2.20
2018-09-21T11:52:49.103Z,2.00
2018-09-21T11:55:17.350Z,2.30
2018-09-21T11:57:45.561Z,1.80
2018-09-21T12:00:13.878Z,1.97
2018-09-21T12:02:42.073Z,2.30
2018-09-21T12:05:10.254Z,1.50
2018-09-21T12:07:38.503Z,1.60
2018-09-21T12:10:06.743Z,2.00
2018-09-21T12:12:35.005Z,1.60
2018-09-21T12:15:03.336Z,1.67
2018-09-21T12:17:31.562Z,1.53
2018-09-21T12:19:59.797Z,1.87
2018-09-21T12:22:28.062Z,2.07
2018-09-21T12:24:56.313Z,1.67
2018-09-21T12:27:24.487Z,1.70
2018-09-21T12:29:52.754Z,1.67
2018-09-21T12:32:21.019Z,1.77
2018-09-21T12:34:49.154Z,1.87
2018-09-21T12:37:17.379Z,2.00
2018-09-21T12:39:45.583Z,2.20
2018-09-21T12:42:13.794Z,2.00
2018-09-21T12:44:42.079Z,1.73
2018-09-21T12:47:12.597Z,1.60
2018-09-21T12:49:40.848Z,1.20
2018-09-21T12:59:32.648Z,1.10
2018-09-21T13:02:00.806Z,0.83
2018-09-21T13:04:29.167Z,0.80
2018-09-21T13:06:57.346Z,0.70
2018-09-21T13:09:25.579Z,0.77
2018-09-21T13:11:53.789Z,0.73
2018-09-21T13:14:28.159Z,1.10
2018-09-21T13:17:00.587Z,0.87
2018-09-21T13:19:29.009Z,1.20
2018-09-21T13:21:57.470Z,0.67
2018-09-21T13:24:26.051Z,0.57
2018-09-21T13:26:54.356Z,0.93
2018-09-21T13:29:22.482Z,1.00
2018-09-21T13:31:50.654Z,1.07
2018-09-21T13:34:18.827Z,0.90
2018-09-21T13:36:47.033Z,0.80
2018-09-21T13:39:15.245Z,0.97
2018-09-21T13:41:58.206Z,0.83
2018-09-21T13:44:36.091Z,0.70
2018-09-21T13:47:07.704Z,1.30
2018-09-21T13:49:36.062Z,0.97
2018-09-21T13:54:31.755Z,0.80
2018-09-21T13:56:59.928Z,0.97
2018-09-21T14:14:14.391Z,1.30
2018-09-21T15:00:59.439Z,1.30
2018-09-21T15:05:55.135Z,1.70
2018-09-21T15:08:23.416Z,1.73
2018-09-21T15:10:51.656Z,1.47
2018-09-21T15:13:19.852Z,1.50
2018-09-21T15:15:48.079Z,1.50
2018-09-21T15:18:16.382Z,1.43
2018-09-21T15:20:44.607Z,1.50
2018-09-21T15:23:12.840Z,1.10
2018-09-21T15:25:41.979Z,1.30
2018-09-21T15:28:10.425Z,1.70
2018-09-21T15:30:49.153Z,1.33
2018-09-21T15:33:17.514Z,1.40
2018-09-21T15:35:46.737Z,1.50
2018-09-21T15:38:15.222Z,1.90
2018-09-21T15:40:43.507Z,1.60
2018-09-21T15:43:11.784Z,1.20
2018-09-21T15:45:40.102Z,1.60
2018-09-21T15:48:11.058Z,1.43
2018-09-21T15:50:41.452Z,2.10
2018-09-21T15:53:11.440Z,1.80
2018-09-21T15:55:39.808Z,1.67
2018-09-21T15:58:08.933Z,1.90
2018-09-21T16:00:39.032Z,2.00
2018-09-21T16:03:08.109Z,1.37
2018-09-21T16:05:41.683Z,1.70
2018-09-21T16:08:20.754Z,1.73
2018-09-21T16:10:55.327Z,1.93
2018-09-21T16:13:25.682Z,1.53
2018-09-21T16:15:53.898Z,1.40
2018-09-21T16:18:22.461Z,1.50
2018-09-21T16:20:50.649Z,1.53
2018-09-21T16:23:18.830Z,1.70
2018-09-21T16:25:47.000Z,1.53
2018-09-21T16:28:15.244Z,1.37
2018-09-21T16:30:43.458Z,1.70
2018-09-21T16:33:11.735Z,1.60
2018-09-21T16:35:40.032Z,1.70
2018-09-21T16:38:08.280Z,1.10
2018-09-21T16:40:36.793Z,1.60
2018-09-21T16:43:04.990Z,1.20
2018-09-21T16:45:33.158Z,1.40
2018-09-21T16:48:01.485Z,1.17
2018-09-21T16:50:29.816Z,1.37
2018-09-21T16:52:58.043Z,1.63
2018-09-21T16:55:26.281Z,1.60
2018-09-21T16:57:54.510Z,1.40
2018-09-21T17:00:22.843Z,1.27
2018-09-21T17:02:51.218Z,1.23
2018-09-21T17:05:19.460Z,1.07
2018-09-21T17:07:47.620Z,1.63
2018-09-21T17:10:15.823Z,0.90
2018-09-21T17:12:43.990Z,1.00
2018-09-21T17:15:12.166Z,1.20
2018-09-21T17:17:40.364Z,0.97
2018-09-21T17:20:08.558Z,0.80
2018-09-21T17:22:44.043Z,0.90
2018-09-21T17:25:12.283Z,0.80
2018-09-21T17:27:40.740Z,0.63
2018-09-21T17:30:08.956Z,0.60
2018-09-21T17:32:37.197Z,0.80
2018-09-21T17:35:06.636Z,0.60
2018-09-21T17:37:34.867Z,0.70
2018-09-21T17:40:03.047Z,1.10
2018-09-21T17:42:31.386Z,0.83
2018-09-21T17:47:27.590Z,0.60
2018-09-21T17:49:55.837Z,0.60
2018-09-21T17:52:24.040Z,0.77
2018-09-21T17:54:52.275Z,0.70
2018-09-21T17:57:20.471Z,0.80
2018-09-21T17:59:48.680Z,0.70
2018-09-21T18:02:16.890Z,0.80
2018-09-21T18:04:45.089Z,0.90
2018-09-21T18:07:18.749Z,0.70
2018-09-21T18:09:47.861Z,0.70
2018-09-21T18:12:16.099Z,0.70
2018-09-21T18:14:44.490Z,0.83
2018-09-21T18:17:13.193Z,0.70
2018-09-21T18:19:42.283Z,1.37
2018-09-21T18:22:11.078Z,9.27
2018-09-21T18:24:39.408Z,2.40
2018-09-21T18:27:07.723Z,0.90
2018-09-21T18:29:36.643Z,0.80
2018-09-21T18:32:04.875Z,1.03
2018-09-21T18:34:33.076Z,1.40
2018-09-21T18:37:04.354Z,1.20
2018-09-21T18:39:34.418Z,0.60
2018-09-21T18:42:02.700Z,1.30
2018-09-21T18:44:30.888Z,0.80
2018-09-21T18:46:59.105Z,0.70
2018-09-21T18:49:27.327Z,0.60
2018-09-21T18:51:55.649Z,0.80
2018-09-21T18:54:24.883Z,1.00
2018-09-21T18:56:53.114Z,0.80
2018-09-21T18:59:21.323Z,1.00
2018-09-21T19:01:49.586Z,0.83
